Time;durP1;ratioP1;P1;durP2;ratioP2;P2;SDS_P1;SDS_P2;PMS_P1;PMS_P2;Temp;Humidity;BMP_temperature;BMP_pressure;BME280_temperature;BME280_humidity;BME280_pressure;Samples;Min_cycle;Max_cycle;Signal;HPM_P1;HPM_P2
2021/11/18 00:02:16;;;;;;;33.00;17.80;;;;;;;5.08;80.65;99278.35;215008;1321;25322;-75
2021/11/18 00:07:27;;;;;;;31.90;17.50;;;;;;;5.10;80.34;99280.77;214796;1315;22650;-74
2021/11/18 00:12:57;;;;;;;30.90;17.70;;;;;;;5.11;80.27;99278.02;214620;1322;25258;-75
2021/11/18 00:18:02;;;;;;;28.90;16.80;;;;;;;5.08;80.35;99277.06;214767;1321;22837;-75
2021/11/18 00:23:05;;;;;;;30.70;18.00;;;;;;;5.06;80.64;99273.79;214907;1321;22562;-75
2021/11/18 00:28:17;;;;;;;31.80;17.20;;;;;;;5.04;80.44;99280.29;215004;1320;22497;-75
2021/11/18 00:33:20;;;;;;;30.80;17.20;;;;;;;5.05;80.50;99286.37;214968;1320;24014;-74
2021/11/18 00:38:26;;;;;;;33.70;18.30;;;;;;;5.06;80.51;99293.49;215034;1322;22615;-74
2021/11/18 00:43:29;;;;;;;32.40;17.40;;;;;;;5.06;80.36;99303.58;214787;1321;22651;-75
2021/11/18 00:48:31;;;;;;;35.90;18.90;;;;;;;5.06;80.69;99305.14;214698;1320;25365;-73
2021/11/18 00:53:39;;;;;;;31.10;17.80;;;;;;;5.03;80.58;99300.83;215065;1321;22543;-74
2021/11/18 00:58:41;;;;;;;32.00;18.50;;;;;;;5.02;80.57;99300.01;214931;1321;22720;-74
2021/11/18 01:03:44;;;;;;;32.50;18.10;;;;;;;5.00;80.82;99299.88;214449;1321;22615;-74
2021/11/18 01:09:16;;;;;;;36.30;19.30;;;;;;;4.97;80.73;99303.50;214611;1320;25411;-74
2021/11/18 01:14:35;;;;;;;28.90;16.80;;;;;;;5.01;81.04;99307.27;214625;1320;24282;-75
2021/11/18 01:19:45;;;;;;;28.60;16.90;;;;;;;5.04;80.92;99309.30;214534;1321;22576;-75
2021/11/18 01:24:47;;;;;;;31.70;17.40;;;;;;;5.03;80.91;99310.80;214603;1315;22619;-75
2021/11/18 01:30:07;;;;;;;32.70;17.90;;;;;;;5.03;80.94;99308.95;214603;1321;22658;-74
2021/11/18 01:35:10;;;;;;;33.40;18.20;;;;;;;5.07;80.98;99310.45;214507;1321;24231;-74
2021/11/18 01:40:30;;;;;;;28.10;16.10;;;;;;;5.11;81.06;99313.02;214412;1322;24290;-74
2021/11/18 01:45:42;;;;;;;28.70;16.10;;;;;;;5.15;80.94;99318.66;214720;1322;22589;-74
2021/11/18 01:50:51;;;;;;;27.40;15.80;;;;;;;5.14;81.31;99315.25;214932;1322;22605;-74
2021/11/18 01:55:54;;;;;;;25.50;15.40;;;;;;;5.09;81.18;99320.80;214755;1322;25071;-75
2021/11/18 02:00:59;;;;;;;27.50;14.10;;;;;;;5.08;81.26;99326.26;214510;1322;22586;-75
2021/11/18 02:06:34;;;;;;;28.10;15.30;;;;;;;5.14;81.40;99331.03;214668;1316;22704;-74
2021/11/18 02:11:44;;;;;;;25.10;14.10;;;;;;;5.24;81.32;99331.63;214946;1322;22890;-75
2021/11/18 02:16:49;;;;;;;24.50;14.70;;;;;;;5.23;81.32;99331.93;214587;1322;22599;-74
2021/11/18 02:21:52;;;;;;;22.80;13.50;;;;;;;5.26;81.47;99333.20;214530;1324;23660;-75
2021/11/18 02:26:55;;;;;;;25.70;14.50;;;;;;;5.32;81.07;99331.02;214535;1322;23804;-74
2021/11/18 02:32:01;;;;;;;25.30;14.30;;;;;;;5.20;81.42;99322.95;214477;1323;22519;-75
2021/11/18 02:37:14;;;;;;;21.70;13.30;;;;;;;5.09;81.38;99333.96;214831;1321;25395;-75
2021/11/18 02:42:17;;;;;;;22.70;13.20;;;;;;;5.05;81.66;99343.20;214920;1321;22585;-74
2021/11/18 02:47:19;;;;;;;22.00;13.10;;;;;;;5.07;81.76;99351.77;215267;1322;22767;-73
2021/11/18 02:52:36;;;;;;;21.70;14.00;;;;;;;5.06;81.61;99360.69;215010;1322;22655;-73
2021/11/18 02:57:38;;;;;;;22.20;12.50;;;;;;;5.02;81.75;99361.84;214491;1322;22545;-75
2021/11/18 03:02:41;;;;;;;20.80;12.90;;;;;;;4.95;82.07;99362.71;214659;1321;22655;-74
2021/11/18 03:07:44;;;;;;;22.80;12.50;;;;;;;4.89;82.54;99361.13;214292;1324;22740;-75
2021/11/18 03:12:58;;;;;;;20.90;12.50;;;;;;;4.88;82.57;99373.26;214952;1321;24295;-74
2021/11/18 03:18:14;;;;;;;19.20;11.40;;;;;;;4.88;82.86;99376.56;214349;1324;22561;-74
2021/11/18 03:23:21;;;;;;;18.20;11.80;;;;;;;4.89;82.83;99376.09;214771;1322;22543;-74
2021/11/18 03:28:26;;;;;;;17.80;11.10;;;;;;;4.91;82.92;99377.66;214524;1325;22762;-74
2021/11/18 03:34:05;;;;;;;18.10;10.80;;;;;;;4.92;82.93;99381.83;214826;1322;22650;-75
2021/11/18 03:39:21;;;;;;;18.80;11.20;;;;;;;4.93;82.90;99384.13;214555;1323;25445;-74
2021/11/18 03:44:25;;;;;;;15.30;10.30;;;;;;;4.91;83.39;99386.80;214613;1323;24218;-74
2021/11/18 03:49:28;;;;;;;16.50;11.10;;;;;;;4.89;83.30;99391.23;214844;1322;22210;-74
2021/11/18 03:54:32;;;;;;;16.40;10.40;;;;;;;4.91;83.37;99391.11;214983;1319;22510;-74
2021/11/18 03:59:48;;;;;;;17.00;10.50;;;;;;;4.96;83.49;99391.14;214671;1322;22567;-74
2021/11/18 04:04:59;;;;;;;15.10;10.10;;;;;;;5.01;83.37;99399.73;214666;1322;22731;-74
2021/11/18 04:10:06;;;;;;;12.40;9.10;;;;;;;5.07;83.36;99392.30;214724;1322;22495;-74
2021/11/18 04:15:22;;;;;;;14.60;10.20;;;;;;;5.14;83.25;99399.19;215009;1322;22565;-75
2021/11/18 04:20:27;;;;;;;15.90;10.20;;;;;;;5.18;83.29;99400.00;214862;1325;25274;-74
2021/11/18 04:25:33;;;;;;;14.70;10.30;;;;;;;5.18;83.05;99414.86;215019;1315;23703;-75
2021/11/18 04:30:44;;;;;;;16.00;9.80;;;;;;;5.18;83.10;99413.31;214991;1322;25344;-74
2021/11/18 04:35:59;;;;;;;15.20;10.00;;;;;;;5.13;82.88;99411.58;214845;1322;23912;-74
2021/11/18 04:41:03;;;;;;;15.30;9.70;;;;;;;5.11;83.11;99409.21;214671;1317;23271;-74
2021/11/18 04:46:09;;;;;;;16.30;10.40;;;;;;;5.06;83.03;99420.18;214796;1320;23065;-74
2021/11/18 04:51:14;;;;;;;13.60;9.40;;;;;;;5.04;83.20;99419.30;215109;1320;22680;-74
2021/11/18 04:56:23;;;;;;;14.10;9.30;;;;;;;5.05;83.16;99422.02;214742;1322;24224;-75
2021/11/18 05:01:27;;;;;;;14.60;9.90;;;;;;;5.03;83.17;99415.92;214296;1325;22587;-75
2021/11/18 05:06:30;;;;;;;14.60;9.40;;;;;;;4.95;83.18;99415.49;214589;1324;22512;-74
2021/11/18 05:11:33;;;;;;;15.40;10.40;;;;;;;4.89;83.47;99411.98;207268;1322;10391514;-75
2021/11/18 05:16:36;;;;;;;13.00;9.20;;;;;;;4.88;83.54;99412.34;214807;1322;24349;-75
2021/11/18 05:21:41;;;;;;;13.90;10.00;;;;;;;4.88;83.66;99420.83;215025;1321;22556;-74
2021/11/18 05:26:52;;;;;;;13.80;9.60;;;;;;;4.87;83.57;99417.14;215039;1319;24241;-74
2021/11/18 05:32:13;;;;;;;15.80;9.00;;;;;;;4.84;83.61;99427.77;214913;1322;23858;-74
2021/11/18 05:37:31;;;;;;;12.50;8.70;;;;;;;4.85;83.59;99435.79;215064;1322;22733;-75
2021/11/18 05:42:36;;;;;;;14.10;10.00;;;;;;;4.84;83.80;99433.98;214980;1322;24077;-74
2021/11/18 05:47:38;;;;;;;17.20;10.20;;;;;;;4.84;83.61;99436.35;214994;1321;23379;-74
2021/11/18 05:52:41;;;;;;;17.70;10.90;;;;;;;4.85;83.68;99442.20;214522;1322;22599;-75
2021/11/18 05:57:45;;;;;;;18.70;10.40;;;;;;;4.88;83.71;99445.74;214736;1322;25369;-74
2021/11/18 06:02:48;;;;;;;14.70;9.80;;;;;;;4.90;83.66;99449.33;215067;1320;22565;-75
2021/11/18 06:07:54;;;;;;;14.00;9.70;;;;;;;4.93;83.67;99459.65;215029;1316;23712;-75
2021/11/18 06:12:58;;;;;;;13.60;8.80;;;;;;;4.99;83.37;99463.48;215042;1322;22672;-75
2021/11/18 06:18:06;;;;;;;12.00;8.00;;;;;;;5.03;83.32;99463.83;215155;1322;22615;-74
2021/11/18 06:23:10;;;;;;;12.70;8.60;;;;;;;5.04;83.04;99467.71;214669;1321;25354;-74
2021/11/18 06:28:14;;;;;;;12.10;8.40;;;;;;;5.09;83.37;99466.65;215162;1318;22614;-75
2021/11/18 06:33:30;;;;;;;12.90;7.80;;;;;;;5.18;83.28;99471.83;214544;1324;22755;-75
2021/11/18 06:38:52;;;;;;;14.00;8.50;;;;;;;5.29;82.89;99474.27;214588;1316;22822;-75
2021/11/18 06:43:54;;;;;;;12.00;8.30;;;;;;;5.33;82.62;99474.23;215755;1316;22567;-76
2021/11/18 06:48:59;;;;;;;15.30;9.10;;;;;;;5.34;82.46;99487.02;215531;1317;22724;-76
2021/11/18 06:54:01;;;;;;;11.20;8.30;;;;;;;5.37;82.57;99491.80;216052;1316;22830;-76
2021/11/18 06:59:05;;;;;;;11.60;7.80;;;;;;;5.46;82.72;99490.14;216212;1316;22638;-75
2021/11/18 07:04:14;;;;;;;11.90;8.10;;;;;;;5.57;82.49;99498.17;215712;1315;22521;-76
2021/11/18 07:09:17;;;;;;;12.20;8.20;;;;;;;5.65;82.42;99502.53;215574;1315;22599;-76
2021/11/18 07:14:41;;;;;;;11.00;7.30;;;;;;;5.71;82.16;99503.06;215349;1316;22611;-76
2021/11/18 07:19:44;;;;;;;11.00;8.00;;;;;;;5.78;81.84;99506.70;215647;1315;23479;-76
2021/11/18 07:24:54;;;;;;;12.80;8.20;;;;;;;5.89;81.57;99506.46;215367;1316;24378;-76
2021/11/18 07:29:57;;;;;;;12.40;8.30;;;;;;;5.93;81.47;99515.79;215408;1316;23821;-76
2021/11/18 07:35:00;;;;;;;11.50;8.00;;;;;;;5.94;81.35;99518.42;215448;1322;22707;-77
2021/11/18 07:40:07;;;;;;;12.30;7.60;;;;;;;5.99;80.95;99517.16;215302;1316;23309;-76
2021/11/18 07:45:14;;;;;;;13.10;9.10;;;;;;;6.09;80.96;99520.45;215870;1316;22618;-76
2021/11/18 07:50:55;;;;;;;11.60;8.40;;;;;;;6.17;81.08;99518.63;214850;1321;25440;-75
2021/11/18 07:56:13;;;;;;;12.30;8.10;;;;;;;6.28;80.76;99509.70;215061;1316;25953;-77
2021/11/18 08:01:17;;;;;;;13.20;9.20;;;;;;;6.35;80.31;99511.46;214879;1316;22616;-76
2021/11/18 08:06:26;;;;;;;12.10;8.90;;;;;;;6.39;80.09;99511.68;215182;1316;25352;-76
2021/11/18 08:11:35;;;;;;;13.60;8.20;;;;;;;6.42;79.94;99516.30;215279;1318;23757;-75
2021/11/18 08:16:44;;;;;;;14.40;8.80;;;;;;;6.43;79.82;99524.63;215681;1316;22698;-76
2021/11/18 08:21:48;;;;;;;13.80;8.60;;;;;;;6.37;79.24;99532.23;215432;1316;24889;-75
2021/11/18 08:26:53;;;;;;;10.80;7.50;;;;;;;6.24;79.07;99535.65;215315;1315;22609;-74
2021/11/18 08:31:58;;;;;;;12.20;8.20;;;;;;;6.26;79.23;99537.92;215012;1316;22765;-75
2021/11/18 08:37:01;;;;;;;11.10;7.80;;;;;;;6.49;79.75;99540.30;215293;1315;22655;-76
2021/11/18 08:42:06;;;;;;;13.40;8.20;;;;;;;6.78;79.80;99544.59;215613;1316;22610;-76
2021/11/18 08:47:13;;;;;;;12.10;8.00;;;;;;;7.03;78.73;99541.73;215638;1316;22622;-77
2021/11/18 08:52:19;;;;;;;10.50;7.00;;;;;;;7.09;77.74;99541.81;215241;1315;22668;-75
2021/11/18 08:57:28;;;;;;;8.50;6.30;;;;;;;7.31;78.05;99549.39;215830;1316;24342;-75
2021/11/18 09:02:42;;;;;;;9.60;6.00;;;;;;;7.59;77.66;99562.46;215123;1316;23798;-77
2021/11/18 09:07:48;;;;;;;12.40;6.50;;;;;;;7.76;77.08;99568.42;215320;1316;24167;-75
2021/11/18 09:12:51;;;;;;;10.90;5.90;;;;;;;7.92;77.01;99575.91;215224;1316;22909;-76
2021/11/18 09:17:56;;;;;;;8.00;5.00;;;;;;;8.06;76.84;99576.73;215286;1315;22698;-75
2021/11/18 09:23:37;;;;;;;8.60;5.50;;;;;;;8.17;75.78;99585.50;215261;1316;23405;-75
2021/11/18 09:28:41;;;;;;;9.00;5.30;;;;;;;8.05;75.00;99586.82;215383;1318;22648;-75
2021/11/18 09:34:01;;;;;;;8.40;4.60;;;;;;;7.86;74.55;99586.29;215510;1315;22796;-75
2021/11/18 09:39:07;;;;;;;7.20;3.90;;;;;;;7.70;74.74;99590.75;215017;1318;26008;-74
2021/11/18 09:44:33;;;;;;;6.90;3.90;;;;;;;7.59;74.16;99594.84;215237;1318;22652;-75
2021/11/18 09:49:52;;;;;;;5.90;4.30;;;;;;;7.44;74.19;99602.55;214966;1316;24353;-75
2021/11/18 09:55:07;;;;;;;5.10;4.00;;;;;;;7.39;74.35;99610.80;215456;1318;22749;-75
2021/11/18 10:00:21;;;;;;;6.40;4.00;;;;;;;7.42;74.28;99604.55;215587;1316;22495;-75
2021/11/18 10:06:01;;;;;;;7.80;4.50;;;;;;;7.48;74.34;99592.25;215250;1321;24344;-75
2021/11/18 10:11:31;;;;;;;9.30;4.80;;;;;;;7.53;73.72;99585.28;214860;1322;25342;-75
2021/11/18 10:16:45;;;;;;;8.80;5.00;;;;;;;7.54;73.31;99582.56;215626;1315;22513;-75
2021/11/18 10:21:50;;;;;;;7.70;4.90;;;;;;;7.57;73.55;99581.65;215306;1318;22863;-74
2021/11/18 10:27:09;;;;;;;7.40;4.40;;;;;;;7.63;73.15;99574.41;215399;1317;24181;-74
2021/11/18 10:32:17;;;;;;;6.80;4.10;;;;;;;7.65;73.18;99569.90;215834;1316;22516;-75
2021/11/18 10:37:40;;;;;;;6.20;4.20;;;;;;;7.76;72.90;99557.96;215586;1316;24354;-74
2021/11/18 10:43:14;;;;;;;9.40;4.90;;;;;;;7.85;73.10;99555.50;215334;1316;23154;-73
2021/11/18 10:48:30;;;;;;;9.60;5.20;;;;;;;7.94;73.04;99553.52;215246;1315;22654;-73
2021/11/18 10:54:08;;;;;;;9.00;5.40;;;;;;;8.03;72.64;99556.48;215193;1318;25361;-73
2021/11/18 10:59:42;;;;;;;8.90;4.60;;;;;;;8.14;72.51;99545.80;215317;1318;22576;-74
2021/11/18 11:04:48;;;;;;;12.30;5.70;;;;;;;8.20;71.86;99541.70;215135;1318;25873;-74
2021/11/18 11:09:57;;;;;;;8.90;4.80;;;;;;;8.14;71.48;99538.86;215603;1318;22647;-73
2021/11/18 11:15:29;;;;;;;8.20;4.70;;;;;;;8.06;71.38;99536.92;215513;1315;24195;-74
2021/11/18 11:20:58;;;;;;;7.60;5.00;;;;;;;7.90;71.47;99541.41;215500;1316;22619;-74
2021/11/18 11:26:15;;;;;;;6.30;4.20;;;;;;;7.83;71.96;99526.04;215405;1316;24486;-74
2021/11/18 11:31:36;;;;;;;10.30;4.60;;;;;;;7.83;71.94;99514.77;215676;1316;22536;-73
2021/11/18 11:36:50;;;;;;;6.90;3.60;;;;;;;7.80;71.82;99520.45;215461;1315;22604;-74
2021/11/18 11:42:17;;;;;;;6.60;3.20;;;;;;;7.80;71.95;99519.28;215343;1319;23164;-74
2021/11/18 11:47:33;;;;;;;7.00;3.80;;;;;;;7.88;72.36;99533.29;215199;1315;25413;-74
2021/11/18 11:52:47;;;;;;;10.70;4.80;;;;;;;7.93;72.01;99529.86;215371;1316;24109;-75
2021/11/18 11:58:07;;;;;;;8.00;4.70;;;;;;;7.95;72.22;99528.48;215511;1316;24276;-76
2021/11/18 12:03:32;;;;;;;5.80;3.60;;;;;;;8.03;72.35;99541.05;215024;1321;23880;-75
2021/11/18 12:08:58;;;;;;;6.90;3.60;;;;;;;8.19;72.18;99544.19;215097;1315;22524;-75
2021/11/18 12:14:03;;;;;;;5.80;3.10;;;;;;;8.34;71.99;99547.69;215274;1315;23607;-75
2021/11/18 12:19:16;;;;;;;6.80;3.20;;;;;;;8.49;71.85;99540.05;215094;1320;23862;-74
2021/11/18 12:24:23;;;;;;;5.40;3.00;;;;;;;8.58;70.65;99537.81;215366;1316;25356;-74
2021/11/18 12:29:44;;;;;;;5.70;2.80;;;;;;;8.51;70.24;99539.20;215426;1315;22662;-75
2021/11/18 12:35:08;;;;;;;7.30;3.20;;;;;;;8.54;70.80;99534.30;215475;1316;23709;-76
2021/11/18 12:40:45;;;;;;;5.60;3.40;;;;;;;8.63;70.23;99524.98;215258;1316;22657;-76
2021/11/18 12:45:53;;;;;;;4.60;3.10;;;;;;;8.63;69.86;99518.20;215226;1319;24336;-76
2021/11/18 12:51:17;;;;;;;7.00;2.90;;;;;;;8.70;70.11;99511.49;215166;1315;22503;-76
2021/11/18 12:56:52;;;;;;;5.40;4.00;;;;;;;8.81;69.80;99500.51;215377;1319;24280;-74
2021/11/18 13:01:58;;;;;;;5.60;2.60;;;;;;;8.94;70.03;99491.27;215387;1320;22617;-75
2021/11/18 13:07:10;;;;;;;7.00;3.60;;;;;;;9.05;69.51;99486.41;215265;1321;22569;-75
2021/11/18 13:12:27;;;;;;;5.80;3.20;;;;;;;9.13;69.63;99495.59;215075;1316;185656;-75
2021/11/18 13:17:50;;;;;;;7.70;3.50;;;;;;;9.23;69.10;99503.27;215111;1322;22686;-77
2021/11/18 13:23:23;;;;;;;6.60;3.30;;;;;;;9.21;68.64;99504.49;215081;1322;22690;-75
2021/11/18 13:28:40;;;;;;;5.80;3.20;;;;;;;9.14;68.16;99499.98;215281;1318;22556;-73
2021/11/18 13:33:46;;;;;;;6.10;3.20;;;;;;;9.08;68.47;99492.05;215259;1315;25217;-74
2021/11/18 13:38:56;;;;;;;6.90;3.30;;;;;;;8.95;67.84;99497.86;215496;1316;22519;-73
2021/11/18 13:43:59;;;;;;;;;;;;;;;8.80;68.03;99498.74;215543;1316;24273;-74
2021/11/18 13:49:18;;;;;;;6.30;2.80;;;;;;;8.70;68.00;99487.30;215689;1316;25396;-74
2021/11/18 13:54:34;;;;;;;6.70;4.00;;;;;;;8.58;67.89;99482.70;215504;1315;23018;-74
2021/11/18 13:59:46;;;;;;;7.50;3.50;;;;;;;8.43;68.43;99493.25;215026;1318;22666;-74
2021/11/18 14:04:51;;;;;;;8.10;3.80;;;;;;;8.33;68.70;99496.67;215623;1321;24219;-74
2021/11/18 14:10:06;;;;;;;6.10;3.60;;;;;;;8.23;69.07;99496.08;215280;1319;22530;-75
2021/11/18 14:15:35;;;;;;;8.40;3.10;;;;;;;8.18;69.18;99498.34;215392;1315;22601;-75
2021/11/18 14:21:06;;;;;;;5.30;3.50;;;;;;;8.21;69.34;99503.38;215276;1315;24394;-75
2021/11/18 14:26:27;;;;;;;7.10;3.00;;;;;;;8.23;69.15;99505.05;215671;1315;22602;-75
2021/11/18 14:31:51;;;;;;;6.90;2.30;;;;;;;8.21;69.04;99495.00;215736;1315;22616;-75
2021/11/18 14:37:27;;;;;;;8.60;2.90;;;;;;;8.15;68.78;99491.00;215398;1318;22843;-74
2021/11/18 14:42:55;;;;;;;9.70;3.10;;;;;;;8.05;68.78;99505.11;215466;1315;22640;-75
2021/11/18 14:48:14;;;;;;;6.30;3.00;;;;;;;7.98;68.69;99491.29;215148;1318;24231;-75
2021/11/18 14:54:02;;;;;;;5.70;2.70;;;;;;;7.88;68.66;99502.23;215210;1316;22580;-76
2021/11/18 14:59:23;;;;;;;9.00;3.20;;;;;;;7.83;69.13;99503.89;215198;1315;22672;-75
2021/11/18 15:04:35;;;;;;;9.70;3.40;;;;;;;7.78;68.96;99503.52;215588;1319;23836;-75
2021/11/18 15:09:39;;;;;;;7.70;3.90;;;;;;;7.74;68.95;99506.89;214641;1322;24257;-76
2021/11/18 15:14:43;;;;;;;8.60;4.10;;;;;;;7.69;69.12;99520.24;214666;1322;22619;-74
2021/11/18 15:19:48;;;;;;;9.60;4.40;;;;;;;7.67;69.14;99529.86;214790;1319;25396;-75
2021/11/18 15:25:26;;;;;;;8.70;4.50;;;;;;;7.63;69.25;99527.10;214944;1320;22716;-76
2021/11/18 15:30:38;;;;;;;9.40;5.10;;;;;;;7.60;69.30;99522.60;215032;1321;22575;-74
2021/11/18 15:35:40;;;;;;;11.80;6.30;;;;;;;7.59;69.63;99504.87;214948;1316;22535;-75
2021/11/18 15:41:05;;;;;;;17.80;8.50;;;;;;;7.56;69.48;99510.23;214950;1316;24276;-74
2021/11/18 15:46:09;;;;;;;14.00;8.50;;;;;;;7.52;69.71;99518.52;214582;1316;23369;-74
2021/11/18 15:51:13;;;;;;;13.40;7.70;;;;;;;7.48;69.84;99513.60;214923;1320;25339;-75
2021/11/18 15:56:19;;;;;;;13.20;7.00;;;;;;;7.46;69.80;99518.17;214786;1316;22883;-75
2021/11/18 16:01:34;;;;;;;10.70;6.10;;;;;;;7.44;70.02;99520.87;214664;1321;24248;-74
2021/11/18 16:06:37;;;;;;;16.00;5.80;;;;;;;7.46;70.05;99529.74;214260;1319;24180;-75
2021/11/18 16:11:43;;;;;;;10.80;5.40;;;;;;;7.46;70.19;99532.52;214724;1320;22563;-75
2021/11/18 16:16:45;;;;;;;9.80;5.20;;;;;;;7.44;69.79;99534.58;214493;1320;22757;-74
2021/11/18 16:21:48;;;;;;;10.00;5.50;;;;;;;7.42;70.23;99535.40;214926;1317;22799;-75
2021/11/18 16:26:50;;;;;;;11.80;6.60;;;;;;;7.36;70.14;99539.55;214993;1316;22734;-74
2021/11/18 16:31:55;;;;;;;11.70;6.60;;;;;;;7.32;70.48;99537.41;214856;1316;22765;-74
2021/11/18 16:37:02;;;;;;;11.20;5.70;;;;;;;7.29;70.37;99532.47;214944;1321;22495;-75
2021/11/18 16:42:10;;;;;;;15.70;7.60;;;;;;;7.22;70.68;99536.75;215008;1320;22624;-75
2021/11/18 16:47:16;;;;;;;21.60;10.00;;;;;;;7.15;70.86;99526.28;214910;1319;22529;-75
2021/11/18 16:52:27;;;;;;;21.70;11.40;;;;;;;7.08;71.19;99525.98;215001;1316;22586;-76
2021/11/18 16:57:31;;;;;;;23.80;11.00;;;;;;;7.06;71.25;99527.60;214763;1319;22616;-75
2021/11/18 17:02:33;;;;;;;19.30;11.40;;;;;;;7.04;71.24;99521.66;214938;1322;22574;-75
2021/11/18 17:07:35;;;;;;;25.70;12.00;;;;;;;7.04;71.45;99511.86;214474;1322;22612;-75
2021/11/18 17:12:42;;;;;;;24.60;12.70;;;;;;;7.03;71.25;99515.25;214628;1322;24151;-75
2021/11/18 17:17:44;;;;;;;23.20;12.10;;;;;;;7.03;71.30;99531.77;214876;1316;24242;-73
2021/11/18 17:23:01;;;;;;;16.90;10.70;;;;;;;7.04;71.49;99544.23;214929;1320;26100;-74
2021/11/18 17:28:05;;;;;;;17.80;10.10;;;;;;;7.03;71.17;99543.13;214870;1322;22624;-75
2021/11/18 17:33:17;;;;;;;16.70;9.30;;;;;;;7.05;71.11;99548.48;214851;1322;22622;-75
2021/11/18 17:38:36;;;;;;;19.60;10.70;;;;;;;7.10;71.32;99548.55;214474;1316;22966;-75
2021/11/18 17:43:42;;;;;;;18.00;9.60;;;;;;;7.14;71.22;99532.40;214607;1319;22699;-75
2021/11/18 17:48:45;;;;;;;18.80;9.80;;;;;;;7.16;71.19;99533.15;214873;1320;22614;-75
2021/11/18 17:53:49;;;;;;;17.90;9.60;;;;;;;7.15;70.91;99551.70;214906;1321;24337;-75
2021/11/18 17:58:56;;;;;;;18.00;10.10;;;;;;;7.16;70.90;99552.89;214793;1321;22658;-75
2021/11/18 18:03:59;;;;;;;15.50;8.90;;;;;;;7.19;71.00;99542.16;215058;1320;24301;-75
2021/11/18 18:09:05;;;;;;;15.70;7.80;;;;;;;7.15;70.62;99535.30;215097;1320;24407;-75
2021/11/18 18:14:08;;;;;;;13.80;8.40;;;;;;;7.08;70.49;99526.83;214860;1316;22652;-74
2021/11/18 18:19:12;;;;;;;13.00;7.40;;;;;;;7.01;70.59;99530.03;214768;1320;22619;-75
2021/11/18 18:24:30;;;;;;;15.30;8.70;;;;;;;7.01;70.92;99525.79;214904;1320;22601;-75
2021/11/18 18:29:59;;;;;;;17.70;9.10;;;;;;;7.02;71.08;99541.61;214805;1316;22634;-75
2021/11/18 18:35:05;;;;;;;14.30;7.80;;;;;;;7.06;70.90;99527.98;214786;1321;22608;-75
2021/11/18 18:40:13;;;;;;;13.40;7.30;;;;;;;7.07;71.19;99513.02;214801;1321;25397;-75
2021/11/18 18:45:19;;;;;;;13.20;7.40;;;;;;;7.05;70.79;99513.20;215047;1321;22608;-75
2021/11/18 18:50:26;;;;;;;11.40;6.60;;;;;;;7.00;70.99;99507.65;214759;1316;22611;-75
2021/11/18 18:55:41;;;;;;;14.10;8.40;;;;;;;6.99;70.89;99508.33;214950;1317;24233;-75
2021/11/18 19:00:58;;;;;;;14.60;7.50;;;;;;;6.99;71.05;99507.73;214781;1321;24429;-75
2021/11/18 19:06:05;;;;;;;15.70;7.70;;;;;;;6.99;71.32;99504.16;214882;1315;24216;-75
2021/11/18 19:11:10;;;;;;;14.40;7.90;;;;;;;7.00;71.28;99505.42;214868;1321;22507;-74
2021/11/18 19:16:19;;;;;;;13.40;6.90;;;;;;;7.00;71.50;99509.84;215079;1322;24314;-74
2021/11/18 19:21:22;;;;;;;12.00;7.20;;;;;;;7.00;71.23;99512.91;215008;1322;22651;-75
2021/11/18 19:26:36;;;;;;;11.00;7.00;;;;;;;6.97;71.12;99499.89;214846;1319;22575;-75
2021/11/18 19:32:02;;;;;;;12.00;6.70;;;;;;;6.89;71.30;99492.59;214718;1319;25503;-74
2021/11/18 19:37:12;;;;;;;10.50;6.20;;;;;;;6.83;71.23;99494.31;214692;1321;22612;-74
2021/11/18 19:42:17;;;;;;;10.60;7.00;;;;;;;6.79;71.60;99499.48;215088;1319;22603;-75
2021/11/18 19:47:34;;;;;;;12.60;7.00;;;;;;;6.75;71.77;99496.65;215012;1321;22638;-73
2021/11/18 19:52:55;;;;;;;10.60;7.20;;;;;;;6.73;71.91;99502.48;214698;1321;22573;-74
2021/11/18 19:58:00;;;;;;;12.70;7.30;;;;;;;6.73;71.99;99509.98;214935;1319;22576;-75
2021/11/18 20:03:03;;;;;;;10.00;6.50;;;;;;;6.73;72.15;99515.38;215286;1319;23171;-75
2021/11/18 20:08:20;;;;;;;11.00;6.50;;;;;;;6.72;72.36;99512.23;214979;1323;22707;-73
2021/11/18 20:13:30;;;;;;;12.70;7.60;;;;;;;6.67;72.52;99506.52;214999;1320;22504;-74
2021/11/18 20:18:33;;;;;;;13.20;7.80;;;;;;;6.63;72.78;99501.06;214852;1322;23010;-74
2021/11/18 20:23:35;;;;;;;13.30;8.20;;;;;;;6.60;72.88;99494.36;215027;1322;22622;-74
2021/11/18 20:28:40;;;;;;;12.50;8.30;;;;;;;6.58;73.08;99489.34;215345;1321;23829;-74
2021/11/18 20:33:44;;;;;;;13.70;8.40;;;;;;;6.58;73.27;99489.88;214851;1320;23829;-75
2021/11/18 20:38:49;;;;;;;17.20;8.80;;;;;;;6.60;73.73;99478.98;214921;1322;22573;-75
2021/11/18 20:44:19;;;;;;;11.60;7.70;;;;;;;6.61;73.56;99479.67;214740;1316;22525;-75
2021/11/18 20:49:23;;;;;;;12.60;7.70;;;;;;;6.63;73.66;99469.55;214552;1320;24355;-74
2021/11/18 20:54:26;;;;;;;13.00;7.50;;;;;;;6.66;73.51;99455.05;214615;1321;22560;-74
2021/11/18 20:59:28;;;;;;;14.50;8.30;;;;;;;6.67;73.68;99445.59;214831;1321;24222;-74
2021/11/18 21:04:33;;;;;;;14.70;8.70;;;;;;;6.69;73.84;99431.92;214972;1319;22538;-74
2021/11/18 21:09:38;;;;;;;9.80;7.40;;;;;;;6.71;73.80;99427.38;214726;1321;209012;-75
2021/11/18 21:14:55;;;;;;;16.10;8.00;;;;;;;6.71;74.03;99422.36;214906;1321;22568;-75
2021/11/18 21:20:09;;;;;;;13.10;8.50;;;;;;;6.71;74.03;99430.56;214811;1319;22670;-75
2021/11/18 21:25:17;;;;;;;12.30;7.70;;;;;;;6.72;74.08;99426.52;214622;1320;22765;-75
2021/11/18 21:30:43;;;;;;;13.20;7.60;;;;;;;6.73;74.01;99420.91;214716;1319;23400;-74
2021/11/18 21:35:45;;;;;;;13.00;8.60;;;;;;;6.74;74.02;99425.55;214887;1320;25220;-74
2021/11/18 21:40:52;;;;;;;13.30;8.30;;;;;;;6.75;74.09;99422.95;214727;1320;22611;-74
2021/11/18 21:46:08;;;;;;;16.20;9.10;;;;;;;6.76;74.02;99413.07;214962;1320;24798;-74
2021/11/18 21:51:34;;;;;;;12.90;8.30;;;;;;;6.75;73.99;99396.48;214908;1321;25523;-74
2021/11/18 21:56:38;;;;;;;15.40;8.90;;;;;;;6.74;74.04;99395.35;214704;1322;22658;-75
2021/11/18 22:01:50;;;;;;;15.10;9.10;;;;;;;6.73;74.22;99389.59;214924;1315;22573;-75
2021/11/18 22:06:56;;;;;;;20.10;10.40;;;;;;;6.72;74.22;99387.77;214769;1322;22607;-75
2021/11/18 22:12:00;;;;;;;23.50;11.70;;;;;;;6.69;74.14;99376.23;214928;1320;24006;-74
2021/11/18 22:17:18;;;;;;;20.60;10.10;;;;;;;6.65;74.21;99383.48;215194;1320;24270;-74
2021/11/18 22:22:27;;;;;;;15.80;9.60;;;;;;;6.66;74.40;99372.48;214923;1321;25198;-75
2021/11/18 22:27:33;;;;;;;17.30;10.00;;;;;;;6.67;74.03;99368.27;215262;1317;22582;-74
2021/11/18 22:32:43;;;;;;;16.60;9.70;;;;;;;6.68;74.23;99361.30;215164;1321;25427;-74
2021/11/18 22:37:47;;;;;;;16.50;9.10;;;;;;;6.70;74.21;99368.45;215022;1316;23053;-74
2021/11/18 22:42:50;;;;;;;16.30;10.00;;;;;;;6.73;74.23;99375.26;215112;1320;22608;-75
2021/11/18 22:47:55;;;;;;;15.50;8.10;;;;;;;6.75;74.09;99370.55;214873;1322;22851;-73
2021/11/18 22:53:11;;;;;;;15.90;8.80;;;;;;;6.76;73.70;99363.80;215215;1313;22701;-74
2021/11/18 22:58:27;;;;;;;14.40;8.70;;;;;;;6.78;73.88;99374.05;214774;1321;25972;-74
2021/11/18 23:03:36;;;;;;;14.70;9.10;;;;;;;6.78;73.65;99372.80;214902;1319;23978;-74
2021/11/18 23:08:39;;;;;;;16.00;8.90;;;;;;;6.79;73.78;99380.29;214930;1321;22739;-75
2021/11/18 23:13:42;;;;;;;13.90;8.00;;;;;;;6.79;73.76;99375.60;214715;1322;22610;-75
2021/11/18 23:18:46;;;;;;;12.20;7.30;;;;;;;6.79;73.54;99349.50;214545;1317;22723;-74
2021/11/18 23:23:57;;;;;;;10.90;7.00;;;;;;;6.80;73.74;99352.39;214986;1322;25362;-73
2021/11/18 23:29:02;;;;;;;11.70;6.90;;;;;;;6.81;73.72;99347.52;214856;1316;23309;-74
2021/11/18 23:34:12;;;;;;;12.10;7.10;;;;;;;6.81;73.48;99335.67;214847;1320;22644;-74
2021/11/18 23:39:16;;;;;;;9.80;6.30;;;;;;;6.81;73.33;99318.15;214466;1322;22526;-74
2021/11/18 23:44:22;;;;;;;11.70;6.80;;;;;;;6.80;73.73;99305.83;214732;1316;22508;-75
2021/11/18 23:49:25;;;;;;;9.80;6.40;;;;;;;6.79;73.30;99305.09;214628;1321;22586;-74
2021/11/18 23:54:27;;;;;;;11.10;6.00;;;;;;;6.79;73.69;99298.80;214813;1322;24818;-74
2021/11/18 23:59:29;;;;;;;9.90;5.90;;;;;;;6.76;73.52;99296.16;215051;1320;24964;-74
